Terminal Aerodrome Forecast
Issued by NWS St Louis, MO

Home | Current Version | Previous Version | Text Only | Print | Product List | Glossary On
Versions: 1 2 3 4 5 6 7 8 9 10 11 12 13 14 15 16 17 18 19 20 21 22 23 24 25 26 27 28
000
FTUS43 KLSX 192341
TAFCOU
TAF
KCOU 192341Z 2000/2024 14006KT P6SM SCT250
     FM200800 16008KT P6SM BKN080
     FM201200 15008KT P6SM VCSH BKN090
     FM201600 17011KT P6SM -SHRA OVC040
     FM202100 19010KT 5SM SHRA OVC030=

USA.gov is the U.S. government's official web portal to all federal, state and local government web resources and services.